Time;durP1;ratioP1;P1;durP2;ratioP2;P2;SDS_P1;SDS_P2;PMS_P1;PMS_P2;Temp;Humidity;BMP_temperature;BMP_pressure;BME280_temperature;BME280_humidity;BME280_pressure;Samples;Min_cycle;Max_cycle;Signal;HPM_P1;HPM_P2
2023/06/19 00:01:05;;;;;;;8.45;7.03;;;;;;;-146.58;100.00;69501.63;5029507;28;20022;-69
2023/06/19 00:03:31;;;;;;;10.50;7.22;;;;;;;-146.58;100.00;69501.63;5028194;28;20420;-69
2023/06/19 00:05:56;;;;;;;8.98;6.90;;;;;;;-146.58;100.00;69501.63;5032692;28;20036;-69
2023/06/19 00:08:21;;;;;;;7.50;5.55;;;;;;;-146.58;100.00;69501.63;5031549;28;20037;-69
2023/06/19 00:10:48;;;;;;;8.38;6.50;;;;;;;-146.58;100.00;69501.63;5033676;28;20021;-69
2023/06/19 00:13:14;;;;;;;8.40;5.97;;;;;;;-146.58;100.00;69501.63;5032609;28;20025;-69
2023/06/19 00:15:40;;;;;;;9.85;5.78;;;;;;;-146.58;100.00;69501.63;5033880;28;20079;-69
2023/06/19 00:18:06;;;;;;;8.30;5.97;;;;;;;-146.58;100.00;69501.63;5031832;28;20101;-69
2023/06/19 00:20:32;;;;;;;7.95;5.80;;;;;;;-146.58;100.00;69501.63;5033988;28;20017;-73
2023/06/19 00:22:57;;;;;;;11.05;6.20;;;;;;;-146.58;100.00;69501.63;5033648;28;20030;-69
2023/06/19 00:25:23;;;;;;;7.22;4.85;;;;;;;-146.58;100.00;69501.63;5032264;28;20037;-69
2023/06/19 00:27:48;;;;;;;5.85;5.18;;;;;;;-146.58;100.00;69501.63;5033140;28;20029;-69
2023/06/19 00:30:14;;;;;;;8.65;6.93;;;;;;;-146.58;100.00;69501.63;5032270;28;20416;-69
2023/06/19 00:32:49;;;;;;;8.80;6.40;;;;;;;-146.58;100.00;69501.63;5033830;28;20037;-69
2023/06/19 00:35:17;;;;;;;9.48;5.60;;;;;;;-146.58;100.00;69501.63;5032389;28;20467;-69
2023/06/19 00:37:46;;;;;;;7.10;6.40;;;;;;;-146.58;100.00;69501.63;5033338;28;20388;-69
2023/06/19 00:40:21;;;;;;;;;;;;;;;-146.58;100.00;69501.63;5032661;28;20064;-69
2023/06/19 00:42:46;;;;;;;12.32;7.07;;;;;;;-146.58;100.00;69501.63;5033019;28;19919;-69
2023/06/19 00:45:11;;;;;;;7.95;5.30;;;;;;;-146.58;100.00;69501.63;5032140;28;20050;-69
2023/06/19 00:47:37;;;;;;;8.27;6.55;;;;;;;-146.58;100.00;69501.63;5033242;28;20021;-69
2023/06/19 00:50:02;;;;;;;6.45;5.47;;;;;;;-146.58;100.00;69501.63;5031449;28;20095;-69
2023/06/19 00:52:28;;;;;;;7.95;6.82;;;;;;;-146.58;100.00;69501.63;5033372;28;20070;-70
2023/06/19 00:54:53;;;;;;;5.78;4.43;;;;;;;-146.58;100.00;69501.63;5031478;28;20100;-70
2023/06/19 00:57:19;;;;;;;7.68;6.13;;;;;;;-146.58;100.00;69501.63;5032908;28;20056;-70
2023/06/19 00:59:44;;;;;;;8.05;4.93;;;;;;;-146.58;100.00;69501.63;5031745;28;20049;-70
2023/06/19 01:02:10;;;;;;;8.32;6.20;;;;;;;-146.58;100.00;69501.63;5032996;28;20030;-70
2023/06/19 01:04:36;;;;;;;11.35;5.80;;;;;;;-146.58;100.00;69501.63;5031329;28;20038;-70
2023/06/19 01:07:10;;;;;;;6.80;6.13;;;;;;;-146.58;100.00;69501.63;5032981;28;20036;-70
2023/06/19 01:09:50;;;;;;;5.72;5.10;;;;;;;-146.58;100.00;69501.63;5031680;28;20039;-72
2023/06/19 01:12:19;;;;;;;8.70;5.15;;;;;;;-146.58;100.00;69501.63;5011679;28;20076;-71
2023/06/19 01:14:58;;;;;;;6.07;4.65;;;;;;;-146.58;100.00;69501.63;5011605;28;20038;-72
2023/06/19 01:17:26;;;;;;;7.75;6.28;;;;;;;-146.58;100.00;69501.63;5011963;28;20044;-71
2023/06/19 01:19:51;;;;;;;6.32;5.68;;;;;;;-146.58;100.00;69501.63;5030238;28;20494;-71
2023/06/19 01:22:32;;;;;;;5.90;5.30;;;;;;;-146.58;100.00;69501.63;5032124;28;20029;-71
2023/06/19 01:24:57;;;;;;;8.38;5.03;;;;;;;-146.58;100.00;69501.63;5030546;28;20107;-72
2023/06/19 01:27:31;;;;;;;6.57;5.97;;;;;;;-146.58;100.00;69501.63;5032711;28;20025;-69
2023/06/19 01:29:57;;;;;;;9.45;6.03;;;;;;;-146.58;100.00;69501.63;5031063;28;20403;-68
2023/06/19 01:32:50;;;;;;;8.15;5.88;;;;;;;-146.58;100.00;69501.63;5032285;28;20017;-69
2023/06/19 01:35:19;;;;;;;6.63;5.50;;;;;;;-146.58;100.00;69501.63;5031293;28;20125;-67
2023/06/19 01:37:47;;;;;;;6.10;5.50;;;;;;;-146.58;100.00;69501.63;5032215;28;20025;-71
2023/06/19 01:40:14;;;;;;;5.93;5.35;;;;;;;-146.58;100.00;69501.63;5030593;28;20029;-71
2023/06/19 01:42:40;;;;;;;13.90;5.20;;;;;;;-146.58;100.00;69501.63;5032420;28;20060;-71
2023/06/19 01:45:06;;;;;;;7.03;5.75;;;;;;;-146.58;100.00;69501.63;5030896;28;20404;-71
2023/06/19 01:47:32;;;;;;;9.60;4.55;;;;;;;-146.58;100.00;69501.63;5032034;28;20021;-71
2023/06/19 01:49:57;;;;;;;7.18;4.15;;;;;;;-146.58;100.00;69501.63;5030686;28;20187;-71
2023/06/19 01:52:24;;;;;;;5.70;4.45;;;;;;;-146.58;100.00;69501.63;5032123;28;20029;-71
2023/06/19 01:54:50;;;;;;;10.45;5.93;;;;;;;-146.58;100.00;69501.63;5030423;28;20504;-71
2023/06/19 01:57:15;;;;;;;7.88;5.45;;;;;;;-146.58;100.00;69501.63;5031825;28;20139;-71
2023/06/19 01:59:40;;;;;;;4.88;4.38;;;;;;;-146.58;100.00;69501.63;5030835;28;20488;-71
2023/06/19 02:02:06;;;;;;;8.20;4.88;;;;;;;-146.58;100.00;69501.63;5031151;28;20025;-72
2023/06/19 02:04:32;;;;;;;5.45;4.95;;;;;;;-146.58;100.00;69501.63;5030477;28;20049;-72
2023/06/19 02:06:57;;;;;;;5.88;4.85;;;;;;;-146.58;100.00;69501.63;5031789;28;20029;-71
2023/06/19 02:09:22;;;;;;;15.00;5.95;;;;;;;-146.58;100.00;69501.63;5030231;28;20060;-71
2023/06/19 02:11:48;;;;;;;8.30;4.75;;;;;;;-146.58;100.00;69501.63;5031517;28;20028;-72
2023/06/19 02:14:13;;;;;;;5.43;3.95;;;;;;;-146.58;100.00;69501.63;5030462;28;20092;-71
2023/06/19 02:16:43;;;;;;;4.97;4.50;;;;;;;-146.58;100.00;69501.63;5031509;28;20025;-71
2023/06/19 02:19:11;;;;;;;7.63;5.65;;;;;;;-146.58;100.00;69501.63;5028573;28;20412;-71
2023/06/19 02:21:36;;;;;;;7.85;4.75;;;;;;;-146.58;100.00;69501.63;5031742;28;20132;-71
2023/06/19 02:24:02;;;;;;;7.25;4.57;;;;;;;-146.58;100.00;69501.63;5029390;28;20067;-71
2023/06/19 02:26:29;;;;;;;5.25;4.75;;;;;;;-146.58;100.00;69501.63;5031547;28;20392;-72
2023/06/19 02:28:55;;;;;;;9.80;5.25;;;;;;;-146.58;100.00;69501.63;5029366;28;20079;-71
2023/06/19 02:31:23;;;;;;;8.18;5.35;;;;;;;-146.58;100.00;69501.63;5031278;28;20025;-71
2023/06/19 02:33:49;;;;;;;5.82;4.43;;;;;;;-146.58;100.00;69501.63;5029650;28;20041;-71
2023/06/19 02:36:19;;;;;;;10.32;4.53;;;;;;;-146.58;100.00;69501.63;5031492;28;20029;-72
2023/06/19 02:38:45;;;;;;;9.27;4.90;;;;;;;-146.58;100.00;69501.63;5029327;28;20042;-72
2023/06/19 02:41:10;;;;;;;8.65;5.55;;;;;;;-146.58;100.00;69501.63;5031336;28;20052;-72
2023/06/19 02:43:36;;;;;;;5.93;5.22;;;;;;;-146.58;100.00;69501.63;5029844;28;20033;-72
2023/06/19 02:46:01;;;;;;;5.93;4.75;;;;;;;-146.58;100.00;69501.63;5030677;28;20404;-73
2023/06/19 02:48:27;;;;;;;7.40;4.72;;;;;;;-146.58;100.00;69501.63;5029565;28;20076;-72
2023/06/19 02:50:53;;;;;;;4.80;4.22;;;;;;;-146.58;100.00;69501.63;5031094;28;20022;-72
2023/06/19 02:53:18;;;;;;;11.00;4.75;;;;;;;-146.58;100.00;69501.63;5029750;28;20045;-70
2023/06/19 02:55:43;;;;;;;5.53;4.13;;;;;;;-146.58;100.00;69501.63;5030513;28;20036;-71
2023/06/19 02:58:09;;;;;;;5.85;5.03;;;;;;;-146.58;100.00;69501.63;5029738;28;20026;-68
2023/06/19 03:00:34;;;;;;;9.68;5.00;;;;;;;-146.58;100.00;69501.63;5030413;28;20025;-68
2023/06/19 03:02:59;;;;;;;6.70;4.95;;;;;;;-146.58;100.00;69501.63;5028798;28;20405;-67
2023/06/19 03:05:27;;;;;;;5.63;4.85;;;;;;;-146.58;100.00;69501.63;5031038;28;20025;-67
2023/06/19 03:07:52;;;;;;;6.30;4.75;;;;;;;-146.58;100.00;69501.63;5030682;28;20500;-67
2023/06/19 03:10:17;;;;;;;5.57;5.00;;;;;;;-146.58;100.00;69501.63;5029265;28;20175;-67
2023/06/19 03:12:43;;;;;;;5.28;4.78;;;;;;;-146.58;100.00;69501.63;5030610;28;20024;-67
2023/06/19 03:15:08;;;;;;;6.40;5.18;;;;;;;-146.58;100.00;69501.63;5029248;28;20052;-66
2023/06/19 03:17:34;;;;;;;5.43;4.32;;;;;;;-146.58;100.00;69501.63;5030491;28;20036;-66
2023/06/19 03:19:59;;;;;;;4.85;4.28;;;;;;;-146.58;100.00;69501.63;5029070;28;20037;-67
2023/06/19 03:22:24;;;;;;;5.60;4.82;;;;;;;-146.58;100.00;69501.63;5030473;28;20373;-67
2023/06/19 03:24:50;;;;;;;6.80;5.43;;;;;;;-146.58;100.00;69501.63;5028494;28;20041;-66
2023/06/19 03:27:15;;;;;;;5.40;4.88;;;;;;;-146.58;100.00;69501.63;5030717;28;20017;-66
2023/06/19 03:29:40;;;;;;;5.65;4.45;;;;;;;-146.58;100.00;69501.63;5029090;28;20520;-67
2023/06/19 03:32:06;;;;;;;6.63;4.82;;;;;;;-146.58;100.00;69501.63;5029964;28;20040;-67
2023/06/19 03:34:31;;;;;;;7.70;3.97;;;;;;;-146.58;100.00;69501.63;5028794;28;20171;-67
2023/06/19 03:36:57;;;;;;;6.32;4.20;;;;;;;-146.58;100.00;69501.63;5028403;28;20033;-66
2023/06/19 03:39:22;;;;;;;6.05;5.32;;;;;;;-146.58;100.00;69501.63;5028840;28;20492;-67
2023/06/19 03:41:48;;;;;;;5.55;4.60;;;;;;;-146.58;100.00;69501.63;5030134;28;20026;-66
2023/06/19 03:44:13;;;;;;;8.45;5.22;;;;;;;-146.58;100.00;69501.63;5028579;28;20037;-66
2023/06/19 03:46:38;;;;;;;9.25;5.80;;;;;;;-146.58;100.00;69501.63;5030077;28;20535;-68
2023/06/19 03:49:04;;;;;;;7.13;4.57;;;;;;;-146.58;100.00;69501.63;5028483;28;20049;-67
2023/06/19 03:51:30;;;;;;;6.80;6.07;;;;;;;-146.58;100.00;69501.63;5030140;28;20049;-68
2023/06/19 03:53:55;;;;;;;16.33;5.50;;;;;;;-146.58;100.00;69501.63;5028233;28;20049;-69
2023/06/19 03:56:21;;;;;;;9.23;4.32;;;;;;;-146.58;100.00;69501.63;5029677;28;20021;-67
2023/06/19 03:58:46;;;;;;;9.98;4.60;;;;;;;-146.58;100.00;69501.63;5028492;28;20038;-64
2023/06/19 04:01:11;;;;;;;4.63;3.97;;;;;;;-146.58;100.00;69501.63;5029604;28;20439;-64
2023/06/19 04:03:37;;;;;;;6.50;5.47;;;;;;;-146.58;100.00;69501.63;5028300;28;20111;-64
2023/06/19 04:06:02;;;;;;;7.43;5.80;;;;;;;-146.58;100.00;69501.63;5028468;28;20488;-68
2023/06/19 04:08:27;;;;;;;6.28;4.97;;;;;;;-146.58;100.00;69501.63;5027665;28;20045;-69
2023/06/19 04:10:53;;;;;;;4.97;3.95;;;;;;;-146.58;100.00;69501.63;5029369;28;20056;-68
2023/06/19 04:13:18;;;;;;;5.93;4.10;;;;;;;-146.58;100.00;69501.63;5027770;28;20033;-68
2023/06/19 04:15:44;;;;;;;5.18;4.60;;;;;;;-146.58;100.00;69501.63;5029342;28;20022;-71
2023/06/19 04:18:10;;;;;;;12.85;4.68;;;;;;;-146.58;100.00;69501.63;5028377;28;20022;-69
2023/06/19 04:20:35;;;;;;;7.53;4.40;;;;;;;-146.58;100.00;69501.63;5029854;28;20030;-67
2023/06/19 04:23:00;;;;;;;7.53;4.97;;;;;;;-146.58;100.00;69501.63;5027911;28;20389;-67
2023/06/19 04:25:26;;;;;;;9.63;4.88;;;;;;;-146.58;100.00;69501.63;5029600;28;20170;-71
2023/06/19 04:27:51;;;;;;;6.22;3.95;;;;;;;-146.58;100.00;69501.63;5029724;28;20029;-71
2023/06/19 04:30:17;;;;;;;4.60;3.92;;;;;;;-146.58;100.00;69501.63;5028334;28;20039;-70
2023/06/19 04:32:42;;;;;;;13.45;4.95;;;;;;;-146.58;100.00;69501.63;5028739;28;20025;-67
2023/06/19 04:35:10;;;;;;;6.45;5.25;;;;;;;-146.58;100.00;69501.63;5027877;28;20049;-68
2023/06/19 04:37:35;;;;;;;20.30;4.90;;;;;;;-146.58;100.00;69501.63;5029200;28;20403;-67
2023/06/19 04:40:01;;;;;;;6.60;4.03;;;;;;;-146.58;100.00;69501.63;5028155;28;20045;-68
2023/06/19 04:42:26;;;;;;;7.25;3.83;;;;;;;-146.58;100.00;69501.63;5029010;28;20045;-71
2023/06/19 04:44:52;;;;;;;4.05;2.78;;;;;;;-146.58;100.00;69501.63;5027066;28;20041;-70
2023/06/19 04:47:20;;;;;;;4.90;3.92;;;;;;;-146.58;100.00;69501.63;5029312;28;20075;-72
2023/06/19 04:49:45;;;;;;;9.82;4.20;;;;;;;-146.58;100.00;69501.63;5027567;28;20045;-72
2023/06/19 04:52:11;;;;;;;9.20;3.33;;;;;;;-146.58;100.00;69501.63;5030304;28;20056;-71
2023/06/19 04:54:36;;;;;;;5.60;4.15;;;;;;;-146.58;100.00;69501.63;5031640;28;20033;-72
2023/06/19 04:57:02;;;;;;;7.43;3.33;;;;;;;-146.58;100.00;69501.63;5033155;28;20036;-65
2023/06/19 04:59:27;;;;;;;7.18;3.50;;;;;;;-146.58;100.00;69501.63;5031442;28;20068;-64
2023/06/19 05:01:55;;;;;;;4.03;3.30;;;;;;;-146.58;100.00;69501.63;5032895;28;20017;-64
2023/06/19 05:04:22;;;;;;;6.93;3.97;;;;;;;-146.58;100.00;69501.63;5031534;28;20053;-64
2023/06/19 05:06:47;;;;;;;3.95;3.22;;;;;;;-146.58;100.00;69501.63;5032622;28;20022;-64
2023/06/19 05:09:13;;;;;;;3.92;2.80;;;;;;;-146.58;100.00;69501.63;5031796;28;20119;-64
2023/06/19 05:11:39;;;;;;;4.50;4.10;;;;;;;-146.58;100.00;69501.63;5033295;28;20050;-64
2023/06/19 05:14:05;;;;;;;3.67;3.33;;;;;;;-146.58;100.00;69501.63;5031173;28;20515;-65
2023/06/19 05:16:30;;;;;;;4.05;3.70;;;;;;;-146.58;100.00;69501.63;5033026;28;20021;-64
2023/06/19 05:18:55;;;;;;;3.45;3.15;;;;;;;-146.58;100.00;69501.63;5031178;28;20040;-64
2023/06/19 05:21:21;;;;;;;3.90;3.28;;;;;;;-146.58;100.00;69501.63;5032977;28;20021;-63
2023/06/19 05:23:50;;;;;;;5.07;4.05;;;;;;;-146.58;100.00;69501.63;5029428;28;20037;-64
2023/06/19 05:26:22;;;;;;;4.18;3.13;;;;;;;-146.58;100.00;69501.63;5032807;28;20021;-64
2023/06/19 05:28:48;;;;;;;4.85;3.92;;;;;;;-146.58;100.00;69501.63;5031127;28;20476;-64
2023/06/19 05:31:13;;;;;;;4.50;4.03;;;;;;;-146.58;100.00;69501.63;5032586;28;20031;-64
2023/06/19 05:33:40;;;;;;;5.05;3.58;;;;;;;-146.58;100.00;69501.63;5031196;28;20037;-66
2023/06/19 05:36:05;;;;;;;4.30;3.45;;;;;;;-146.58;100.00;69501.63;5032246;28;20112;-64
2023/06/19 05:38:31;;;;;;;6.15;4.47;;;;;;;-146.58;100.00;69501.63;5030794;28;20385;-65
2023/06/19 05:40:57;;;;;;;5.13;3.80;;;;;;;-146.58;100.00;69501.63;5032170;28;20057;-66
2023/06/19 05:43:24;;;;;;;3.30;2.97;;;;;;;-146.58;100.00;69501.63;5031163;28;20030;-66
2023/06/19 05:45:49;;;;;;;4.18;3.78;;;;;;;-146.58;100.00;69501.63;5031764;28;20029;-66
2023/06/19 05:48:15;;;;;;;5.88;5.28;;;;;;;-146.58;100.00;69501.63;5030756;28;20037;-65
2023/06/19 05:50:40;;;;;;;4.90;4.28;;;;;;;-146.58;100.00;69501.63;5032224;28;20025;-66
2023/06/19 05:53:06;;;;;;;15.45;4.43;;;;;;;-146.58;100.00;69501.63;5026837;28;20044;-66
2023/06/19 05:55:31;;;;;;;28.17;5.78;;;;;;;-146.58;100.00;69501.63;5031291;28;20021;-66
2023/06/19 05:57:56;;;;;;;5.85;4.72;;;;;;;-146.58;100.00;69501.63;5031534;28;20021;-65
2023/06/19 06:00:22;;;;;;;5.75;5.18;;;;;;;-146.58;100.00;69501.63;5030364;28;20041;-66
2023/06/19 06:02:47;;;;;;;5.30;4.32;;;;;;;-146.58;100.00;69501.63;5030550;28;20053;-66
2023/06/19 06:05:13;;;;;;;6.60;3.88;;;;;;;-146.58;100.00;69501.63;5030381;28;20045;-66
2023/06/19 06:07:38;;;;;;;7.07;5.90;;;;;;;-146.58;100.00;69501.63;5031599;28;20117;-65
2023/06/19 06:10:05;;;;;;;5.22;3.28;;;;;;;-146.58;100.00;69501.63;5030204;28;20071;-65
2023/06/19 06:12:30;;;;;;;7.72;4.45;;;;;;;-146.58;100.00;69501.63;5031661;28;20536;-67
2023/06/19 06:14:55;;;;;;;6.25;4.85;;;;;;;-146.58;100.00;69501.63;5029690;28;20041;-66
2023/06/19 06:17:21;;;;;;;5.55;5.05;;;;;;;-146.58;100.00;69501.63;5031663;28;20025;-65
2023/06/19 06:19:46;;;;;;;11.98;5.15;;;;;;;-146.58;100.00;69501.63;5029803;28;20037;-66
2023/06/19 06:22:11;;;;;;;13.13;5.45;;;;;;;-146.58;100.00;69501.63;5031267;28;20034;-66
2023/06/19 06:24:37;;;;;;;7.05;5.30;;;;;;;-146.58;100.00;69501.63;5030259;28;20044;-65
2023/06/19 06:27:02;;;;;;;8.85;4.78;;;;;;;-146.58;100.00;69501.63;5031432;28;20499;-66
2023/06/19 06:29:28;;;;;;;5.57;4.15;;;;;;;-146.58;100.00;69501.63;5029936;28;20041;-66
2023/06/19 06:32:06;;;;;;;7.13;4.93;;;;;;;-146.58;100.00;69501.63;5031239;28;20021;-66
2023/06/19 06:34:32;;;;;;;7.47;4.97;;;;;;;-146.58;100.00;69501.63;5030213;28;20038;-73
2023/06/19 06:36:58;;;;;;;7.32;4.43;;;;;;;-146.58;100.00;69501.63;5030731;28;20025;-66
2023/06/19 06:39:24;;;;;;;6.32;4.60;;;;;;;-146.58;100.00;69501.63;5030118;28;20044;-66
2023/06/19 06:41:49;;;;;;;8.77;4.57;;;;;;;-146.58;100.00;69501.63;5030923;28;20503;-66
2023/06/19 06:44:14;;;;;;;5.22;4.72;;;;;;;-146.58;100.00;69501.63;5029389;28;20299;-65
2023/06/19 06:46:40;;;;;;;9.95;5.15;;;;;;;-146.58;100.00;69501.63;5031167;28;20477;-66
2023/06/19 06:49:05;;;;;;;7.00;5.18;;;;;;;-146.58;100.00;69501.63;5029534;28;20472;-66
2023/06/19 06:51:31;;;;;;;7.65;4.82;;;;;;;-146.58;100.00;69501.63;5030900;28;20048;-65
2023/06/19 06:53:56;;;;;;;5.82;5.25;;;;;;;-146.58;100.00;69501.63;5029386;28;20137;-65
2023/06/19 06:56:21;;;;;;;10.27;5.72;;;;;;;-146.58;100.00;69501.63;5031275;28;20487;-65
2023/06/19 06:58:47;;;;;;;7.65;6.00;;;;;;;-146.58;100.00;69501.63;5029076;28;20389;-66
2023/06/19 07:01:12;;;;;;;9.93;5.38;;;;;;;-146.58;100.00;69501.63;5030855;28;20029;-66
2023/06/19 07:03:38;;;;;;;9.07;6.25;;;;;;;-146.58;100.00;69501.63;5029430;28;20049;-66
2023/06/19 07:06:03;;;;;;;6.82;5.68;;;;;;;-146.58;100.00;69501.63;5030422;28;20087;-66
2023/06/19 07:08:28;;;;;;;6.97;5.32;;;;;;;-146.58;100.00;69501.63;5029584;28;20033;-66
2023/06/19 07:10:54;;;;;;;6.30;5.70;;;;;;;-146.58;100.00;69501.63;5030556;28;20353;-66
2023/06/19 07:13:19;;;;;;;8.63;5.25;;;;;;;-146.58;100.00;69501.63;5028956;28;20400;-65
2023/06/19 07:15:44;;;;;;;10.27;7.25;;;;;;;-146.58;100.00;69501.63;5030381;28;20091;-66
2023/06/19 07:18:10;;;;;;;11.65;6.93;;;;;;;-146.58;100.00;69501.63;5029416;28;20053;-66
2023/06/19 07:20:35;;;;;;;7.60;6.88;;;;;;;-146.58;100.00;69501.63;5030283;28;20026;-66
2023/06/19 07:23:01;;;;;;;12.77;5.70;;;;;;;-146.58;100.00;69501.63;5029115;28;20389;-66
2023/06/19 07:25:26;;;;;;;11.52;5.13;;;;;;;-146.58;100.00;69501.63;5030646;28;20025;-66
2023/06/19 07:27:52;;;;;;;8.73;6.50;;;;;;;-146.58;100.00;69501.63;5030213;28;20021;-67
2023/06/19 07:30:17;;;;;;;12.18;6.00;;;;;;;-146.58;100.00;69501.63;5029106;28;20092;-66
2023/06/19 07:32:43;;;;;;;7.78;6.00;;;;;;;-146.58;100.00;69501.63;5030422;28;20097;-67
2023/06/19 07:35:09;;;;;;;7.82;7.03;;;;;;;-146.58;100.00;69501.63;5028860;28;20034;-65
2023/06/19 07:37:34;;;;;;;8.07;6.22;;;;;;;-146.58;100.00;69501.63;5030442;28;20536;-65
2023/06/19 07:39:59;;;;;;;6.82;6.22;;;;;;;-146.58;100.00;69501.63;5028929;28;20053;-67
2023/06/19 07:42:25;;;;;;;13.20;5.65;;;;;;;-146.58;100.00;69501.63;5030020;28;20045;-66
2023/06/19 07:44:51;;;;;;;8.63;6.22;;;;;;;-146.58;100.00;69501.63;5026149;28;20056;-67
2023/06/19 07:47:20;;;;;;;9.85;7.68;;;;;;;-146.58;100.00;69501.63;5028809;28;20148;-65
2023/06/19 07:49:46;;;;;;;10.65;8.35;;;;;;;-146.58;100.00;69501.63;5028229;28;20045;-66
2023/06/19 07:52:12;;;;;;;14.07;6.78;;;;;;;-146.58;100.00;69501.63;5030197;28;20037;-65
2023/06/19 07:54:49;;;;;;;7.80;7.05;;;;;;;-146.58;100.00;69501.63;5028684;28;20124;-66
2023/06/19 07:57:14;;;;;;;6.10;5.50;;;;;;;-146.58;100.00;69501.63;5029745;28;20017;-65
2023/06/19 07:59:40;;;;;;;11.27;5.72;;;;;;;-146.58;100.00;69501.63;5028472;28;20038;-66
2023/06/19 08:02:05;;;;;;;5.75;5.22;;;;;;;-146.58;100.00;69501.63;5029866;28;20149;-66
2023/06/19 08:04:30;;;;;;;10.90;5.80;;;;;;;-146.58;100.00;69501.63;5028250;28;20046;-67
2023/06/19 08:06:56;;;;;;;8.68;5.78;;;;;;;-146.58;100.00;69501.63;5030075;28;20413;-66
2023/06/19 08:09:22;;;;;;;6.82;6.13;;;;;;;-146.58;100.00;69501.63;5028769;28;20060;-66
2023/06/19 08:11:47;;;;;;;8.63;5.90;;;;;;;-146.58;100.00;69501.63;5029565;28;20032;-66
2023/06/19 08:14:12;;;;;;;8.93;5.95;;;;;;;-146.58;100.00;69501.63;5028764;28;20424;-66
2023/06/19 08:16:38;;;;;;;6.10;5.53;;;;;;;-146.58;100.00;69501.63;5030303;28;20025;-65
2023/06/19 08:19:03;;;;;;;6.15;5.55;;;;;;;-146.58;100.00;69501.63;5028274;28;20046;-66
2023/06/19 08:21:29;;;;;;;6.38;5.18;;;;;;;-146.58;100.00;69501.63;5029105;28;20025;-66
2023/06/19 08:23:54;;;;;;;5.93;5.40;;;;;;;-146.58;100.00;69501.63;5028197;28;20404;-66
2023/06/19 08:26:20;;;;;;;6.30;5.70;;;;;;;-146.58;100.00;69501.63;5031594;28;20090;-67
2023/06/19 08:28:45;;;;;;;6.82;5.50;;;;;;;-146.58;100.00;69501.63;5031922;28;20044;-66
2023/06/19 08:31:10;;;;;;;14.13;6.68;;;;;;;-146.58;100.00;69501.63;5033763;28;20014;-65
2023/06/19 08:33:36;;;;;;;11.10;5.30;;;;;;;-146.58;100.00;69501.63;5032509;28;20034;-66
2023/06/19 08:36:01;;;;;;;7.50;5.93;;;;;;;-146.58;100.00;69501.63;5033193;28;20108;-66
2023/06/19 08:38:27;;;;;;;7.07;5.97;;;;;;;-146.58;100.00;69501.63;5032414;28;20400;-66
2023/06/19 08:40:53;;;;;;;7.53;5.35;;;;;;;-146.58;100.00;69501.63;5033420;28;20029;-66
2023/06/19 08:43:18;;;;;;;5.13;4.65;;;;;;;-146.58;100.00;69501.63;5030198;28;20049;-66
2023/06/19 08:45:51;;;;;;;5.30;4.80;;;;;;;-146.58;100.00;69501.63;5033504;28;20017;-66
2023/06/19 08:48:17;;;;;;;7.45;5.10;;;;;;;-146.58;100.00;69501.63;5032102;28;20559;-65
2023/06/19 08:50:42;;;;;;;4.70;4.30;;;;;;;-146.58;100.00;69501.63;5033288;28;20018;-66
2023/06/19 08:53:07;;;;;;;8.70;4.13;;;;;;;-146.58;100.00;69501.63;5032121;28;20388;-66
2023/06/19 08:55:34;;;;;;;5.68;4.25;;;;;;;-146.58;100.00;69501.63;5033566;28;20017;-66
2023/06/19 08:58:00;;;;;;;8.90;3.95;;;;;;;-146.58;100.00;69501.63;5032788;28;20603;-67
2023/06/19 09:00:27;;;;;;;5.60;5.10;;;;;;;-146.58;100.00;69501.63;5032096;28;20104;-66
2023/06/19 09:03:01;;;;;;;7.28;4.63;;;;;;;-146.58;100.00;69501.63;5032859;28;20107;-67
2023/06/19 09:05:26;;;;;;;10.82;6.25;;;;;;;-146.58;100.00;69501.63;5031483;28;20041;-68
2023/06/19 09:08:02;;;;;;;4.22;3.85;;;;;;;-146.58;100.00;69501.63;5033090;28;20338;-65
2023/06/19 09:10:27;;;;;;;6.38;4.60;;;;;;;-146.58;100.00;69501.63;5031613;28;20057;-66
2023/06/19 09:13:11;;;;;;;6.63;5.05;;;;;;;-146.58;100.00;69501.63;5032680;28;20017;-67
2023/06/19 09:15:37;;;;;;;8.70;4.63;;;;;;;-146.58;100.00;69501.63;5032028;28;20083;-66
2023/06/19 09:18:04;;;;;;;4.50;3.30;;;;;;;-146.58;100.00;69501.63;5023695;28;20040;-66
2023/06/19 09:20:30;;;;;;;5.28;3.90;;;;;;;-146.58;100.00;69501.63;5011439;28;20064;-66
2023/06/19 09:22:56;;;;;;;11.93;4.32;;;;;;;-146.58;100.00;69501.63;5011531;28;20477;-66
2023/06/19 09:25:23;;;;;;;6.97;5.32;;;;;;;-146.58;100.00;69501.63;5011637;28;20038;-66
2023/06/19 09:27:48;;;;;;;6.35;4.18;;;;;;;-146.58;100.00;69501.63;5012596;28;20548;-66
2023/06/19 09:30:16;;;;;;;5.55;4.80;;;;;;;-146.58;100.00;69501.63;5011623;28;20034;-66
2023/06/19 09:32:41;;;;;;;5.97;5.37;;;;;;;-146.58;100.00;69501.63;5013527;28;20029;-66
2023/06/19 09:35:07;;;;;;;14.93;6.95;;;;;;;-146.58;100.00;69501.63;5011344;28;20464;-66
2023/06/19 09:37:32;;;;;;;8.90;6.10;;;;;;;-146.58;100.00;69501.63;5012612;28;20080;-66
2023/06/19 09:40:10;;;;;;;12.30;7.18;;;;;;;-146.58;100.00;69501.63;5011099;28;20111;-66
2023/06/19 09:42:41;;;;;;;5.85;5.35;;;;;;;-146.58;100.00;69501.63;5012545;28;20053;-65
2023/06/19 09:45:12;;;;;;;10.25;6.63;;;;;;;-146.58;100.00;69501.63;5017385;28;20428;-66
2023/06/19 09:47:45;;;;;;;15.50;6.35;;;;;;;-146.58;100.00;69501.63;5032514;28;20021;-66
2023/06/19 09:50:13;;;;;;;9.55;7.32;;;;;;;-146.58;100.00;69501.63;5031056;28;20570;-66
2023/06/19 09:52:40;;;;;;;8.32;7.43;;;;;;;-146.58;100.00;69501.63;5032446;28;20029;-66
2023/06/19 09:55:06;;;;;;;11.98;7.65;;;;;;;-146.58;100.00;69501.63;5029537;28;20041;-65
2023/06/19 09:57:33;;;;;;;12.40;7.82;;;;;;;-146.58;100.00;69501.63;5031840;28;20668;-65
2023/06/19 10:00:09;;;;;;;7.63;6.93;;;;;;;-146.58;100.00;69501.63;5030464;28;20060;-66
2023/06/19 10:02:35;;;;;;;11.05;8.10;;;;;;;-146.58;100.00;69501.63;5031826;28;20122;-67
2023/06/19 10:05:00;;;;;;;10.75;7.47;;;;;;;-146.58;100.00;69501.63;5030000;28;20094;-65
2023/06/19 10:07:33;;;;;;;14.88;6.88;;;;;;;-146.58;100.00;69501.63;5032076;28;20415;-65
2023/06/19 10:10:06;;;;;;;13.25;6.20;;;;;;;-146.58;100.00;69501.63;5030104;28;20034;-65
2023/06/19 10:12:38;;;;;;;10.85;7.47;;;;;;;-146.58;100.00;69501.63;5032014;28;20032;-65
2023/06/19 10:15:18;;;;;;;8.88;7.07;;;;;;;-146.58;100.00;69501.63;5029780;28;20137;-65
2023/06/19 10:18:07;;;;;;;7.20;6.15;;;;;;;-146.58;100.00;69501.63;5030649;28;20029;-65
2023/06/19 10:20:37;;;;;;;9.25;6.80;;;;;;;-146.58;100.00;69501.63;5010256;28;20042;-65
2023/06/19 10:23:06;;;;;;;7.43;6.72;;;;;;;-146.58;100.00;69501.63;5004414;28;20518;-65
2023/06/19 10:25:34;;;;;;;12.13;7.28;;;;;;;-146.58;100.00;69501.63;4992059;28;20892;-65
2023/06/19 10:28:00;;;;;;;;;;;;;;;-146.58;100.00;69501.63;5000235;28;20033;-65
2023/06/19 10:30:25;;;;;;;12.13;6.63;;;;;;;-146.58;100.00;69501.63;5030374;28;19951;-65
2023/06/19 10:32:51;;;;;;;8.25;6.78;;;;;;;-146.58;100.00;69501.63;5029579;28;20125;-65
2023/06/19 10:35:21;;;;;;;9.30;7.05;;;;;;;-146.58;100.00;69501.63;5030215;28;20404;-66
2023/06/19 10:37:46;;;;;;;8.90;6.75;;;;;;;-146.58;100.00;69501.63;5031422;28;20400;-65
2023/06/19 10:40:12;;;;;;;9.30;8.40;;;;;;;-146.58;100.00;69501.63;5029688;28;20033;-65
2023/06/19 10:42:41;;;;;;;8.27;6.57;;;;;;;-146.58;100.00;69501.63;5031286;28;20483;-65
2023/06/19 10:45:09;;;;;;;11.95;7.80;;;;;;;-146.58;100.00;69501.63;5029522;28;20053;-66
2023/06/19 10:47:35;;;;;;;8.80;7.97;;;;;;;-146.58;100.00;69501.63;5031017;28;20033;-65
2023/06/19 10:50:01;;;;;;;7.22;6.53;;;;;;;-146.58;100.00;69501.63;5029139;28;20040;-65
2023/06/19 10:52:30;;;;;;;10.43;7.72;;;;;;;-146.58;100.00;69501.63;5031212;28;20106;-65
2023/06/19 10:54:56;;;;;;;9.45;7.20;;;;;;;-146.58;100.00;69501.63;5029078;28;20037;-65
2023/06/19 10:57:31;;;;;;;12.60;7.88;;;;;;;-146.58;100.00;69501.63;5031334;28;20503;-65
2023/06/19 10:59:58;;;;;;;9.32;8.32;;;;;;;-146.58;100.00;69501.63;5028071;28;20408;-65
2023/06/19 11:02:24;;;;;;;11.85;8.13;;;;;;;-146.58;100.00;69501.63;5030582;28;20025;-64
2023/06/19 11:04:53;;;;;;;11.15;7.75;;;;;;;-146.58;100.00;69501.63;5029200;28;20060;-65
2023/06/19 11:07:19;;;;;;;8.30;7.50;;;;;;;-146.58;100.00;69501.63;5031110;28;20036;-66